createdAt,value
2023-02-11T00:01:29.452Z,99.85
2023-02-11T00:04:07.641Z,99.14
2023-02-11T00:06:35.593Z,100.00
2023-02-11T00:09:02.160Z,100.00
2023-02-11T00:11:32.008Z,99.49
2023-02-11T00:14:05.293Z,100.00
2023-02-11T00:16:32.285Z,100.00
2023-02-11T00:19:07.709Z,99.99
2023-02-11T00:21:36.861Z,99.96
2023-02-11T00:24:08.447Z,99.65
2023-02-11T00:26:36.387Z,99.35
2023-02-11T00:29:05.117Z,99.19
2023-02-11T00:31:34.768Z,98.93
2023-02-11T00:34:02.215Z,98.31
2023-02-11T00:36:32.186Z,98.22
2023-02-11T00:39:02.391Z,97.71
2023-02-11T00:41:34.075Z,97.74
2023-02-11T00:44:04.817Z,97.46
2023-02-11T00:46:42.431Z,97.48
2023-02-11T00:49:11.281Z,96.69
2023-02-11T00:51:40.786Z,96.99
2023-02-11T00:54:07.270Z,96.76
2023-02-11T00:56:33.968Z,96.46
2023-02-11T00:59:00.569Z,96.31
2023-02-11T01:01:27.108Z,96.30
2023-02-11T01:03:53.895Z,95.86
2023-02-11T01:06:20.547Z,95.74
2023-02-11T01:08:47.113Z,95.30
2023-02-11T01:11:19.537Z,95.47
2023-02-11T01:13:49.041Z,95.43
2023-02-11T01:16:20.018Z,94.66
2023-02-11T01:18:47.087Z,95.12
2023-02-11T01:21:16.895Z,95.59
2023-02-11T01:23:45.895Z,95.32
2023-02-11T01:26:12.674Z,95.68
2023-02-11T01:28:40.150Z,95.32
2023-02-11T01:31:08.139Z,95.47
2023-02-11T01:33:34.701Z,95.87
2023-02-11T01:36:12.263Z,94.88
2023-02-11T01:38:40.935Z,95.16
2023-02-11T01:41:14.671Z,95.13
2023-02-11T01:43:48.735Z,94.83
2023-02-11T01:46:36.062Z,94.23
2023-02-11T01:49:19.400Z,93.86
2023-02-11T01:51:53.858Z,93.65
2023-02-11T01:54:43.404Z,93.14
2023-02-11T01:57:25.269Z,93.66
2023-02-11T02:00:01.531Z,93.41
2023-02-11T02:02:42.586Z,92.48
2023-02-11T02:05:35.641Z,92.40
2023-02-11T02:08:37.283Z,92.35
2023-02-11T02:11:14.052Z,92.91
2023-02-11T02:13:40.741Z,92.51
2023-02-11T02:16:12.591Z,92.08
2023-02-11T02:19:10.445Z,92.05
2023-02-11T02:22:00.570Z,92.05
2023-02-11T02:25:01.112Z,93.37
2023-02-11T02:28:08.431Z,93.38
2023-02-11T02:31:00.196Z,94.37
2023-02-11T02:33:59.636Z,93.76
2023-02-11T02:36:50.846Z,94.34
2023-02-11T02:39:33.616Z,94.72
2023-02-11T02:42:00.845Z,95.61
2023-02-11T02:44:31.903Z,95.68
2023-02-11T02:47:03.057Z,95.28
2023-02-11T02:49:29.668Z,95.90
2023-02-11T02:52:22.999Z,96.13
2023-02-11T02:55:37.704Z,96.61
2023-02-11T02:58:31.278Z,96.56
2023-02-11T03:01:34.167Z,96.22
2023-02-11T03:04:37.725Z,96.43
2023-02-11T03:07:20.456Z,96.01
2023-02-11T03:09:57.255Z,96.11
2023-02-11T03:12:26.598Z,96.38
2023-02-11T03:14:56.160Z,95.85
2023-02-11T03:17:24.523Z,96.30
2023-02-11T03:19:52.478Z,96.29
2023-02-11T03:22:48.365Z,96.87
2023-02-11T03:25:28.525Z,97.11
2023-02-11T03:28:14.529Z,96.84
2023-02-11T03:30:55.673Z,97.07
2023-02-11T03:33:34.366Z,97.18
2023-02-11T03:36:06.232Z,97.04
2023-02-11T03:38:42.764Z,97.92
2023-02-11T03:41:13.533Z,97.00
2023-02-11T03:43:50.644Z,97.96
2023-02-11T03:46:22.076Z,97.69
2023-02-11T03:49:07.730Z,96.87
2023-02-11T03:51:35.485Z,97.50
2023-02-11T03:54:09.912Z,97.42
2023-02-11T03:56:49.911Z,98.04
2023-02-11T03:59:16.778Z,97.37
2023-02-11T04:01:44.678Z,97.18
2023-02-11T04:04:11.397Z,97.07
2023-02-11T04:06:40.504Z,96.80
2023-02-11T04:09:07.224Z,97.26
2023-02-11T04:11:33.812Z,96.60
2023-02-11T04:14:03.029Z,97.79
2023-02-11T04:16:30.898Z,96.83
2023-02-11T04:18:57.706Z,97.04
2023-02-11T04:21:24.528Z,95.99
2023-02-11T04:23:51.284Z,96.50
2023-02-11T04:26:20.919Z,96.38
2023-02-11T04:28:47.297Z,95.98
2023-02-11T04:31:16.237Z,97.56
2023-02-11T04:33:44.986Z,96.73
2023-02-11T04:36:11.950Z,97.05
2023-02-11T04:38:43.459Z,96.13
2023-02-11T04:41:14.606Z,96.18
2023-02-11T04:43:43.605Z,95.86
2023-02-11T04:46:10.109Z,96.49
2023-02-11T04:48:36.823Z,96.64
2023-02-11T04:51:12.138Z,97.62
2023-02-11T04:53:38.810Z,97.24
2023-02-11T04:56:05.463Z,97.42
2023-02-11T04:58:39.393Z,96.66
2023-02-11T05:01:12.206Z,97.30
2023-02-11T05:03:41.503Z,97.95
2023-02-11T05:06:11.760Z,98.00
2023-02-11T05:08:41.606Z,98.21
2023-02-11T05:11:21.987Z,97.39
2023-02-11T05:13:49.164Z,97.94
2023-02-11T05:16:17.043Z,98.46
2023-02-11T05:18:44.906Z,98.47
2023-02-11T05:21:17.270Z,98.07
2023-02-11T05:23:44.242Z,98.65
2023-02-11T05:26:19.330Z,98.39
2023-02-11T05:28:46.092Z,98.26
2023-02-11T05:31:14.675Z,98.92
2023-02-11T05:33:42.526Z,98.96
2023-02-11T05:36:11.835Z,98.78
2023-02-11T05:38:43.894Z,99.59
2023-02-11T05:41:16.423Z,99.84
2023-02-11T05:43:42.879Z,99.09
2023-02-11T05:46:11.952Z,99.96
2023-02-11T05:48:38.766Z,99.99
2023-02-11T05:51:10.743Z,99.65
2023-02-11T05:53:37.239Z,99.95
2023-02-11T05:56:04.041Z,99.42
2023-02-11T05:58:34.598Z,99.79
2023-02-11T06:01:01.281Z,99.86
2023-02-11T06:03:28.135Z,99.84
2023-02-11T06:06:01.756Z,99.84
2023-02-11T06:08:28.296Z,100.00
2023-02-11T06:10:55.194Z,99.87
2023-02-11T06:13:23.900Z,99.64
2023-02-11T06:15:58.809Z,99.92
2023-02-11T06:18:27.727Z,99.16
2023-02-11T06:20:54.733Z,99.17
2023-02-11T06:23:22.737Z,98.55
2023-02-11T06:25:53.578Z,99.69
2023-02-11T06:28:20.480Z,99.28
2023-02-11T06:30:47.128Z,98.92
2023-02-11T06:33:13.606Z,99.35
2023-02-11T06:35:42.703Z,99.43
2023-02-11T06:38:09.335Z,99.85
2023-02-11T06:40:35.893Z,100.00
2023-02-11T06:43:02.410Z,99.82
2023-02-11T06:45:31.450Z,100.00
2023-02-11T06:48:01.242Z,100.00
2023-02-11T06:50:27.867Z,100.00
2023-02-11T06:52:57.592Z,100.00
2023-02-11T06:55:24.124Z,100.00
2023-02-11T06:57:50.624Z,100.00
2023-02-11T07:00:17.628Z,100.00
2023-02-11T07:02:44.413Z,100.00
2023-02-11T07:05:11.186Z,100.00
2023-02-11T07:07:38.050Z,100.00
2023-02-11T07:10:05.850Z,100.00
2023-02-11T07:12:32.636Z,100.00
2023-02-11T07:14:59.210Z,100.00
2023-02-11T07:17:30.148Z,100.00
2023-02-11T07:19:59.109Z,100.00
2023-02-11T07:22:25.592Z,100.00
2023-02-11T07:24:52.148Z,100.00
2023-02-11T07:27:21.051Z,100.00
2023-02-11T07:29:48.711Z,100.00
2023-02-11T07:32:15.342Z,100.00
2023-02-11T07:34:42.046Z,100.00
2023-02-11T07:37:08.571Z,100.00
2023-02-11T07:39:40.187Z,100.00
2023-02-11T07:42:06.690Z,100.00
2023-02-11T07:44:33.783Z,100.00
2023-02-11T07:47:02.659Z,100.00
2023-02-11T07:49:29.541Z,100.00
2023-02-11T07:51:56.216Z,100.00
2023-02-11T07:54:22.913Z,100.00
2023-02-11T07:56:49.377Z,100.00
2023-02-11T07:59:16.106Z,100.00
2023-02-11T08:01:42.541Z,99.94
2023-02-11T08:04:11.645Z,100.00
2023-02-11T08:06:41.950Z,99.21
2023-02-11T08:09:13.100Z,99.17
2023-02-11T08:11:39.510Z,98.90
2023-02-11T08:14:05.965Z,98.63
2023-02-11T08:16:37.000Z,98.79
2023-02-11T08:19:06.475Z,98.39
2023-02-11T08:21:35.469Z,97.34
2023-02-11T08:24:03.492Z,96.82
2023-02-11T08:26:34.901Z,95.91
2023-02-11T08:29:05.282Z,94.33
2023-02-11T08:31:37.202Z,93.41
2023-02-11T08:34:03.908Z,92.52
2023-02-11T08:36:36.069Z,91.35
2023-02-11T08:39:18.112Z,90.07
2023-02-11T08:41:48.198Z,89.48
2023-02-11T08:44:14.687Z,87.57
2023-02-11T08:46:41.227Z,88.24
2023-02-11T08:49:07.743Z,85.32
2023-02-11T08:51:34.465Z,84.99
2023-02-11T08:54:01.362Z,85.68
2023-02-11T08:56:32.315Z,84.97
2023-02-11T08:58:58.786Z,83.72
2023-02-11T09:01:29.495Z,83.05
2023-02-11T09:03:57.218Z,83.09
2023-02-11T09:06:25.041Z,81.84
2023-02-11T09:08:58.364Z,81.25
2023-02-11T09:11:31.957Z,81.26
2023-02-11T09:13:59.033Z,81.06
2023-02-11T09:16:31.737Z,80.94
2023-02-11T09:19:03.080Z,80.69
2023-02-11T09:21:32.138Z,80.22
2023-02-11T09:23:58.930Z,79.83
2023-02-11T09:26:28.013Z,79.25
2023-02-11T09:28:57.105Z,78.81
2023-02-11T09:31:25.935Z,78.36
2023-02-11T09:33:55.604Z,78.17
2023-02-11T09:36:24.659Z,78.72
2023-02-11T09:38:52.133Z,76.78
2023-02-11T09:41:35.589Z,76.54
2023-02-11T09:44:08.964Z,76.00
2023-02-11T09:46:42.906Z,75.00
2023-02-11T09:49:19.924Z,74.99
2023-02-11T09:51:57.413Z,74.52
2023-02-11T09:54:55.929Z,74.51
2023-02-11T09:57:29.438Z,73.32
2023-02-11T09:59:57.622Z,73.08
2023-02-11T10:02:45.489Z,71.04
2023-02-11T10:05:20.599Z,71.27
2023-02-11T10:07:51.416Z,70.80
2023-02-11T10:10:36.844Z,70.94
2023-02-11T10:13:25.018Z,70.31
2023-02-11T10:16:00.700Z,69.94
2023-02-11T10:19:05.278Z,69.90
2023-02-11T10:21:51.473Z,69.87
2023-02-11T10:24:18.948Z,69.16
2023-02-11T10:26:46.697Z,70.07
2023-02-11T10:29:35.308Z,70.05
2023-02-11T10:32:15.738Z,67.45
2023-02-11T10:34:42.684Z,67.38
2023-02-11T10:37:13.300Z,68.06
2023-02-11T10:39:40.888Z,67.33
2023-02-11T10:42:12.190Z,66.74
2023-02-11T10:44:47.453Z,65.77
2023-02-11T10:47:25.381Z,65.39
2023-02-11T10:49:51.971Z,66.20
2023-02-11T10:52:23.975Z,67.06
2023-02-11T10:55:05.563Z,65.87
2023-02-11T10:57:42.808Z,66.27
2023-02-11T11:00:18.411Z,65.02
2023-02-11T11:02:46.679Z,65.86
2023-02-11T11:05:19.758Z,65.54
2023-02-11T11:08:16.245Z,65.86
2023-02-11T11:10:45.859Z,65.74
2023-02-11T11:13:39.852Z,66.29
2023-02-11T11:16:13.087Z,66.49
2023-02-11T11:18:44.144Z,67.78
2023-02-11T11:21:19.382Z,66.61
2023-02-11T11:24:03.635Z,67.05
2023-02-11T11:26:44.905Z,67.91
2023-02-11T11:29:18.946Z,67.00
2023-02-11T11:31:53.252Z,66.91
2023-02-11T11:34:30.164Z,66.16
2023-02-11T11:37:03.990Z,66.60
2023-02-11T11:39:34.260Z,67.25
2023-02-11T11:42:05.459Z,65.34
2023-02-11T11:44:37.631Z,66.02
2023-02-11T11:47:15.848Z,65.90
2023-02-11T11:50:16.256Z,66.33
2023-02-11T11:52:50.871Z,65.91
2023-02-11T11:55:20.068Z,66.36
2023-02-11T11:57:49.534Z,66.26
2023-02-11T12:00:30.490Z,66.23
2023-02-11T12:03:17.188Z,66.83
2023-02-11T12:05:58.579Z,65.89
2023-02-11T12:08:38.925Z,66.70
2023-02-11T12:11:20.040Z,66.35
2023-02-11T12:13:46.512Z,66.34
2023-02-11T12:16:28.546Z,66.17
2023-02-11T12:19:24.629Z,66.92
2023-02-11T12:22:26.962Z,66.39
2023-02-11T12:25:09.475Z,66.89
2023-02-11T12:27:41.747Z,66.47
2023-02-11T12:30:26.883Z,66.96
2023-02-11T12:33:05.581Z,67.07
2023-02-11T12:35:42.289Z,67.05
2023-02-11T12:38:28.929Z,67.59
2023-02-11T12:41:18.990Z,67.62
2023-02-11T12:43:45.695Z,67.94
2023-02-11T12:46:33.987Z,67.39
2023-02-11T12:49:37.077Z,67.76
2023-02-11T12:52:22.222Z,67.17
2023-02-11T12:55:02.442Z,67.75
2023-02-11T12:57:32.594Z,67.38
2023-02-11T13:00:18.413Z,67.45
2023-02-11T13:03:04.931Z,66.96
2023-02-11T13:05:40.806Z,67.76
2023-02-11T13:08:19.273Z,67.55
2023-02-11T13:10:47.864Z,66.79
2023-02-11T13:13:23.002Z,67.04
2023-02-11T13:15:58.730Z,66.36
2023-02-11T13:18:37.515Z,66.67
2023-02-11T13:21:16.485Z,65.38
2023-02-11T13:24:00.888Z,65.36
2023-02-11T13:26:51.701Z,65.90
2023-02-11T13:29:49.166Z,66.37
2023-02-11T13:32:15.977Z,64.71
2023-02-11T13:34:42.339Z,65.36
2023-02-11T13:37:40.960Z,65.23
2023-02-11T13:40:19.565Z,66.25
2023-02-11T13:42:56.056Z,65.51
2023-02-11T13:45:37.593Z,65.47
2023-02-11T13:48:21.765Z,65.37
2023-02-11T13:50:53.612Z,65.17
2023-02-11T13:53:25.830Z,64.45
2023-02-11T13:56:05.110Z,65.75
2023-02-11T13:58:31.588Z,64.95
2023-02-11T14:00:58.539Z,64.51
2023-02-11T14:03:45.934Z,64.72
2023-02-11T14:06:36.160Z,64.74
2023-02-11T14:09:28.899Z,65.55
2023-02-11T14:12:30.377Z,65.24
2023-02-11T14:15:07.838Z,66.12
2023-02-11T14:17:35.240Z,66.84
2023-02-11T14:20:04.610Z,66.94
2023-02-11T14:22:44.082Z,67.54
2023-02-11T14:25:22.439Z,67.96
2023-02-11T14:27:57.124Z,68.48
2023-02-11T14:30:35.097Z,68.82
2023-02-11T14:33:16.939Z,68.80
2023-02-11T14:36:13.144Z,68.60
2023-02-11T14:38:56.330Z,68.36
2023-02-11T14:41:28.509Z,68.56
2023-02-11T14:44:04.979Z,68.78
2023-02-11T14:46:38.038Z,69.05
2023-02-11T14:49:08.272Z,69.44
2023-02-11T14:51:43.024Z,69.82
2023-02-11T14:54:18.212Z,69.75
2023-02-11T14:57:04.713Z,69.70
2023-02-11T14:59:31.404Z,69.64
2023-02-11T15:02:00.414Z,70.04
2023-02-11T15:04:38.598Z,70.00
2023-02-11T15:07:12.024Z,70.26
2023-02-11T15:09:48.809Z,70.60
2023-02-11T15:12:48.968Z,71.20
2023-02-11T15:15:19.724Z,71.45
2023-02-11T15:17:46.646Z,72.49
2023-02-11T15:20:22.180Z,72.59
2023-02-11T15:22:54.318Z,71.94
2023-02-11T15:25:22.822Z,72.61
2023-02-11T15:27:57.582Z,72.63
2023-02-11T15:30:33.893Z,73.17
2023-02-11T15:33:05.326Z,73.25
2023-02-11T15:35:42.550Z,73.66
2023-02-11T15:38:15.480Z,73.61
2023-02-11T15:41:02.039Z,73.84
2023-02-11T15:43:48.914Z,73.93
2023-02-11T15:46:19.547Z,74.29
2023-02-11T15:48:57.403Z,75.14
2023-02-11T15:51:42.476Z,75.22
2023-02-11T15:54:18.992Z,75.72
2023-02-11T15:56:59.589Z,76.29
2023-02-11T15:59:33.091Z,76.73
2023-02-11T16:02:08.936Z,78.05
2023-02-11T16:04:38.295Z,77.54
2023-02-11T16:07:07.220Z,77.68
2023-02-11T16:09:35.926Z,78.20
2023-02-11T16:12:22.571Z,78.24
2023-02-11T16:14:49.531Z,78.62
2023-02-11T16:17:18.800Z,78.94
2023-02-11T16:19:50.841Z,78.08
2023-02-11T16:22:35.366Z,78.53
2023-02-11T16:25:02.574Z,78.59
2023-02-11T16:27:42.686Z,78.60
2023-02-11T16:30:32.474Z,79.13
2023-02-11T16:33:04.284Z,79.57
2023-02-11T16:35:31.351Z,79.65
2023-02-11T16:37:58.058Z,79.70
2023-02-11T16:40:29.954Z,79.82
2023-02-11T16:43:04.088Z,80.20
2023-02-11T16:45:31.704Z,80.39
2023-02-11T16:48:02.083Z,80.23
2023-02-11T16:50:30.203Z,79.33
2023-02-11T16:52:56.638Z,79.67
2023-02-11T16:55:22.975Z,80.60
2023-02-11T16:57:49.729Z,80.68
2023-02-11T17:00:17.220Z,80.85
2023-02-11T17:02:46.068Z,80.58
2023-02-11T17:05:19.927Z,80.86
2023-02-11T17:07:46.721Z,81.18
2023-02-11T17:10:20.356Z,81.44
2023-02-11T17:12:47.974Z,81.01
2023-02-11T17:15:14.487Z,81.98
2023-02-11T17:17:43.674Z,82.30
2023-02-11T17:20:16.129Z,82.71
2023-02-11T17:22:42.468Z,81.92
2023-02-11T17:25:11.584Z,82.71
2023-02-11T17:27:38.007Z,82.44
2023-02-11T17:30:05.560Z,82.23
2023-02-11T17:32:32.308Z,82.90
2023-02-11T17:34:58.941Z,84.30
2023-02-11T17:37:25.329Z,84.31
2023-02-11T17:39:52.069Z,84.44
2023-02-11T17:42:21.347Z,84.24
2023-02-11T17:44:47.898Z,83.60
2023-02-11T17:47:14.367Z,84.89
2023-02-11T17:49:41.276Z,86.11
2023-02-11T17:52:08.129Z,85.38
2023-02-11T17:54:34.677Z,85.91
2023-02-11T17:57:01.220Z,85.32
2023-02-11T17:59:31.603Z,84.56
2023-02-11T18:01:58.241Z,85.04
2023-02-11T18:04:24.884Z,86.06
2023-02-11T18:06:53.524Z,85.49
2023-02-11T18:09:20.328Z,86.49
2023-02-11T18:11:52.357Z,85.95
2023-02-11T18:14:20.078Z,86.06
2023-02-11T18:16:49.836Z,86.02
2023-02-11T18:19:22.368Z,86.91
2023-02-11T18:21:50.857Z,87.15
2023-02-11T18:24:18.266Z,87.11
2023-02-11T18:26:48.351Z,87.62
2023-02-11T18:29:15.002Z,85.90
2023-02-11T18:31:41.734Z,86.62
2023-02-11T18:34:10.512Z,87.94
2023-02-11T18:36:37.066Z,87.13
2023-02-11T18:39:04.959Z,86.27
2023-02-11T18:41:31.561Z,87.30
2023-02-11T18:43:58.796Z,87.28
2023-02-11T18:46:25.815Z,88.67
2023-02-11T18:48:55.953Z,88.05
2023-02-11T18:51:23.227Z,87.91
2023-02-11T18:53:49.804Z,88.11
2023-02-11T18:56:20.266Z,87.26
2023-02-11T18:58:47.923Z,88.57
2023-02-11T19:01:27.173Z,88.03
2023-02-11T19:03:58.346Z,86.97
2023-02-11T19:06:30.208Z,88.16
2023-02-11T19:09:01.699Z,87.18
2023-02-11T19:11:48.859Z,87.79
2023-02-11T19:14:27.016Z,87.79
2023-02-11T19:16:58.024Z,87.61
2023-02-11T19:19:29.947Z,88.64
2023-02-11T19:21:57.836Z,89.84
2023-02-11T19:24:28.913Z,87.83
2023-02-11T19:26:58.635Z,87.77
2023-02-11T19:29:25.698Z,88.02
2023-02-11T19:31:52.289Z,89.22
2023-02-11T19:34:19.955Z,88.75
2023-02-11T19:36:50.229Z,88.29
2023-02-11T19:39:16.903Z,87.77
2023-02-11T19:41:43.658Z,88.80
2023-02-11T19:44:10.751Z,88.56
2023-02-11T19:46:40.757Z,88.43
2023-02-11T19:49:14.410Z,87.75
2023-02-11T19:51:46.213Z,88.29
2023-02-11T19:54:13.016Z,87.92
2023-02-11T19:56:39.611Z,88.63
2023-02-11T19:59:09.303Z,87.84
2023-02-11T20:01:42.725Z,88.56
2023-02-11T20:04:20.746Z,89.25
2023-02-11T20:06:50.354Z,88.83
2023-02-11T20:09:17.096Z,88.67
2023-02-11T20:11:43.649Z,88.20
2023-02-11T20:14:15.839Z,89.18
2023-02-11T20:16:49.149Z,88.47
2023-02-11T20:19:25.669Z,88.69
2023-02-11T20:21:55.817Z,88.96
2023-02-11T20:24:23.844Z,88.84
2023-02-11T20:26:55.370Z,88.82
2023-02-11T20:29:23.061Z,88.57
2023-02-11T20:31:53.353Z,89.46
2023-02-11T20:34:21.813Z,89.97
2023-02-11T20:36:51.843Z,89.62
2023-02-11T20:39:18.947Z,89.03
2023-02-11T20:41:46.157Z,90.86
2023-02-11T20:44:15.603Z,90.63
2023-02-11T20:46:46.727Z,89.84
2023-02-11T20:49:15.524Z,90.19
2023-02-11T20:51:42.329Z,90.82
2023-02-11T20:54:17.214Z,90.19
2023-02-11T20:56:46.778Z,90.60
2023-02-11T20:59:18.369Z,89.72
2023-02-11T21:01:50.545Z,90.63
2023-02-11T21:04:20.633Z,90.80
2023-02-11T21:06:56.618Z,89.89
2023-02-11T21:09:26.325Z,91.05
2023-02-11T21:11:54.608Z,91.03
2023-02-11T21:14:22.863Z,91.81
2023-02-11T21:16:50.001Z,90.76
2023-02-11T21:19:16.639Z,91.83
2023-02-11T21:21:47.948Z,91.19
2023-02-11T21:24:15.149Z,91.24
2023-02-11T21:26:41.766Z,91.73
2023-02-11T21:29:09.366Z,92.60
2023-02-11T21:31:36.919Z,91.43
2023-02-11T21:34:04.084Z,92.18
2023-02-11T21:36:30.847Z,93.52
2023-02-11T21:38:58.376Z,92.83
2023-02-11T21:41:24.911Z,92.75
2023-02-11T21:43:52.111Z,93.52
2023-02-11T21:46:19.582Z,93.08
2023-02-11T21:48:46.502Z,92.68
2023-02-11T21:51:21.973Z,92.25
2023-02-11T21:53:52.464Z,92.08
2023-02-11T21:56:18.848Z,92.19
2023-02-11T21:58:46.526Z,91.57
2023-02-11T22:01:19.265Z,92.54
2023-02-11T22:03:46.026Z,93.56
2023-02-11T22:06:22.050Z,93.53
2023-02-11T22:08:50.076Z,94.38
2023-02-11T22:11:16.496Z,93.22
2023-02-11T22:13:45.364Z,92.26
2023-02-11T22:16:14.541Z,93.32
2023-02-11T22:18:42.004Z,94.14
2023-02-11T22:21:12.961Z,92.22
2023-02-11T22:23:40.144Z,93.14
2023-02-11T22:26:18.926Z,93.39
2023-02-11T22:28:45.819Z,94.04
2023-02-11T22:31:16.307Z,92.82
2023-02-11T22:33:44.233Z,94.30
2023-02-11T22:36:22.411Z,94.56
2023-02-11T22:38:49.455Z,94.64
2023-02-11T22:41:16.506Z,93.87
2023-02-11T22:43:43.786Z,93.81
2023-02-11T22:46:13.375Z,95.20
2023-02-11T22:48:40.401Z,95.31
2023-02-11T22:51:12.104Z,94.83
2023-02-11T22:53:38.896Z,95.07
2023-02-11T22:56:10.334Z,94.77
2023-02-11T22:58:37.131Z,94.86
2023-02-11T23:01:05.319Z,94.84
2023-02-11T23:03:33.253Z,94.97
2023-02-11T23:06:00.361Z,94.91
2023-02-11T23:08:32.922Z,94.43
2023-02-11T23:11:28.044Z,93.99
2023-02-11T23:13:55.384Z,94.03
2023-02-11T23:16:26.519Z,94.75
2023-02-11T23:18:53.306Z,94.39
2023-02-11T23:21:22.832Z,93.63
2023-02-11T23:23:53.767Z,92.60
2023-02-11T23:26:20.126Z,93.29
2023-02-11T23:28:50.416Z,93.11
2023-02-11T23:31:21.149Z,93.43
2023-02-11T23:33:50.801Z,94.23
2023-02-11T23:36:18.962Z,94.98
2023-02-11T23:38:46.062Z,94.27
2023-02-11T23:41:13.592Z,93.89
2023-02-11T23:43:40.370Z,94.35
2023-02-11T23:46:10.085Z,95.69
2023-02-11T23:48:37.572Z,95.90
2023-02-11T23:51:04.698Z,94.53
2023-02-11T23:53:31.078Z,94.53
2023-02-11T23:55:57.581Z,95.89
2023-02-11T23:58:26.301Z,95.17
